createdAt,value
2018-06-12T00:00:05.087Z,16.21
2018-06-12T00:01:15.247Z,16.14
2018-06-12T00:02:25.439Z,16.17
2018-06-12T00:03:35.583Z,16.2
2018-06-12T00:04:45.711Z,16.06
2018-06-12T00:05:55.865Z,16.02
2018-06-12T00:07:05.749Z,16.02
2018-06-12T00:08:15.870Z,15.98
2018-06-12T00:09:26.260Z,15.98
2018-06-12T00:10:36.671Z,15.99
2018-06-12T00:11:46.805Z,15.98
2018-06-12T00:12:56.861Z,15.98
2018-06-12T00:14:06.987Z,15.98
2018-06-12T00:15:17.170Z,15.92
2018-06-12T00:16:27.797Z,15.95
2018-06-12T00:17:37.666Z,15.89
2018-06-12T00:18:47.820Z,15.8
2018-06-12T00:19:57.719Z,15.79
2018-06-12T00:21:08.099Z,15.82
2018-06-12T00:22:18.157Z,15.79
2018-06-12T00:23:28.298Z,15.87
2018-06-12T00:24:38.274Z,15.84
2018-06-12T00:25:48.508Z,15.87
2018-06-12T00:26:58.653Z,15.8
2018-06-12T00:28:08.452Z,15.88
2018-06-12T00:29:18.263Z,15.73
2018-06-12T00:30:28.446Z,15.88
2018-06-12T00:31:38.653Z,15.82
2018-06-12T00:32:48.805Z,15.73
2018-06-12T00:33:59.064Z,15.82
2018-06-12T00:35:09.275Z,15.75
2018-06-12T00:36:19.600Z,15.78
2018-06-12T00:37:29.994Z,15.84
2018-06-12T00:38:40.142Z,15.8
2018-06-12T00:39:50.310Z,15.73
2018-06-12T00:41:00.478Z,15.72
2018-06-12T00:42:10.654Z,15.68
2018-06-12T00:43:20.858Z,15.68
2018-06-12T00:44:31.062Z,15.69
2018-06-12T00:45:41.322Z,15.68
2018-06-12T00:46:51.814Z,15.7
2018-06-12T00:48:04.388Z,15.68
2018-06-12T00:49:15.954Z,15.63
2018-06-12T00:50:26.095Z,15.57
2018-06-12T00:51:36.294Z,15.64
2018-06-12T00:52:46.540Z,15.57
2018-06-12T00:53:56.726Z,15.54
2018-06-12T00:55:07.081Z,15.61
2018-06-12T00:56:17.461Z,15.6
2018-06-12T00:57:27.594Z,15.51
2018-06-12T00:58:37.979Z,15.61
2018-06-12T00:59:48.129Z,15.55
2018-06-12T01:00:58.288Z,15.54
2018-06-12T01:02:08.452Z,15.51
2018-06-12T01:04:32.237Z,15.46
2018-06-12T01:06:58.184Z,15.45
2018-06-12T01:08:08.327Z,15.38
2018-06-12T01:09:18.582Z,15.43
2018-06-12T01:10:31.493Z,15.4
2018-06-12T01:11:41.677Z,15.32
2018-06-12T01:12:53.106Z,15.33
2018-06-12T01:14:03.261Z,15.36
2018-06-12T01:15:13.624Z,15.4
2018-06-12T01:17:38.769Z,15.36
2018-06-12T01:18:48.934Z,15.43
2018-06-12T01:19:59.739Z,15.38
2018-06-12T01:21:10.074Z,15.35
2018-06-12T01:22:20.223Z,15.29
2018-06-12T01:23:30.389Z,15.27
2018-06-12T01:24:40.268Z,15.27
2018-06-12T01:25:50.280Z,15.21
2018-06-12T01:27:00.552Z,15.35
2018-06-12T01:28:10.731Z,15.3
2018-06-12T01:29:20.865Z,15.33
2018-06-12T01:30:31.188Z,15.27
2018-06-12T01:31:42.383Z,15.3
2018-06-12T01:32:52.605Z,15.33
2018-06-12T01:34:02.986Z,15.23
2018-06-12T01:35:13.146Z,15.29
2018-06-12T01:36:23.334Z,15.21
2018-06-12T01:37:33.216Z,15.21
2018-06-12T01:38:43.373Z,15.29
2018-06-12T01:39:53.533Z,15.3
2018-06-12T01:41:03.695Z,15.25
2018-06-12T01:42:13.834Z,15.25
2018-06-12T01:43:24.054Z,15.23
2018-06-12T01:44:34.210Z,15.36
2018-06-12T01:45:44.418Z,15.35
2018-06-12T01:46:54.566Z,15.21
2018-06-12T01:48:04.690Z,15.32
2018-06-12T01:49:14.830Z,15.27
2018-06-12T01:50:24.964Z,15.29
2018-06-12T01:51:35.381Z,15.24
2018-06-12T01:52:45.580Z,15.33
2018-06-12T01:53:55.750Z,15.29
2018-06-12T01:55:05.716Z,15.21
2018-06-12T01:56:15.833Z,15.21
2018-06-12T01:57:25.726Z,15.25
2018-06-12T01:58:36.070Z,15.23
2018-06-12T01:59:46.563Z,15.2
2018-06-12T02:00:56.681Z,15.24
2018-06-12T02:02:06.805Z,15.24
2018-06-12T02:03:16.942Z,15.24
2018-06-12T02:04:27.089Z,15.2
2018-06-12T02:05:37.356Z,15.09
2018-06-12T02:06:47.711Z,15.11
2018-06-12T02:07:57.860Z,15.08
2018-06-12T02:09:08.006Z,14.93
2018-06-12T02:10:18.142Z,15
2018-06-12T02:11:28.324Z,14.95
2018-06-12T02:12:38.290Z,14.98
2018-06-12T02:13:48.497Z,14.91
2018-06-12T02:14:58.503Z,14.96
2018-06-12T02:16:08.936Z,14.91
2018-06-12T02:17:19.168Z,14.93
2018-06-12T02:18:29.357Z,14.85
2018-06-12T02:19:39.778Z,14.88
2018-06-12T02:20:49.905Z,14.83
2018-06-12T02:22:00.186Z,14.8
2018-06-12T02:23:10.325Z,14.75
2018-06-12T02:24:20.471Z,14.8
2018-06-12T02:25:30.308Z,14.8
2018-06-12T02:26:40.468Z,14.7
2018-06-12T02:27:50.622Z,14.81
2018-06-12T02:29:00.771Z,14.74
2018-06-12T02:30:10.990Z,14.75
2018-06-12T02:31:21.282Z,14.72
2018-06-12T02:32:31.441Z,14.67
2018-06-12T02:33:41.696Z,14.67
2018-06-12T02:34:51.834Z,14.7
2018-06-12T02:36:02.002Z,14.69
2018-06-12T02:37:12.131Z,14.59
2018-06-12T02:38:22.283Z,14.63
2018-06-12T02:39:32.485Z,14.56
2018-06-12T02:40:42.662Z,14.54
2018-06-12T02:41:52.839Z,14.48
2018-06-12T02:43:02.995Z,14.47
2018-06-12T02:44:13.156Z,14.44
2018-06-12T02:45:23.425Z,14.48
2018-06-12T02:46:33.318Z,14.52
2018-06-12T02:47:43.360Z,14.44
2018-06-12T02:48:53.520Z,14.32
2018-06-12T02:50:03.784Z,14.32
2018-06-12T02:51:13.949Z,14.43
2018-06-12T02:52:24.093Z,14.44
2018-06-12T02:53:34.244Z,14.22
2018-06-12T02:54:44.384Z,14.28
2018-06-12T02:55:54.533Z,14.22
2018-06-12T02:57:04.731Z,14.26
2018-06-12T02:58:14.869Z,14.22
2018-06-12T02:59:25.155Z,14.29
2018-06-12T03:00:35.393Z,14.22
2018-06-12T03:01:45.192Z,14.22
2018-06-12T03:02:55.069Z,14.28
2018-06-12T03:04:05.212Z,14.22
2018-06-12T03:05:15.378Z,14.22
2018-06-12T03:06:25.241Z,14.26
2018-06-12T03:07:35.416Z,14.24
2018-06-12T03:08:45.566Z,14.24
2018-06-12T03:09:55.710Z,14.26
2018-06-12T03:11:05.918Z,14.24
2018-06-12T03:12:16.071Z,14.28
2018-06-12T03:13:26.213Z,14.24
2018-06-12T03:14:36.360Z,14.26
2018-06-12T03:15:46.517Z,14.24
2018-06-12T03:16:56.683Z,14.21
2018-06-12T03:18:06.903Z,14.16
2018-06-12T03:19:16.675Z,14.11
2018-06-12T03:20:26.550Z,14.11
2018-06-12T03:21:36.690Z,14.1
2018-06-12T03:22:47.058Z,14.1
2018-06-12T03:23:57.287Z,14.07
2018-06-12T03:25:07.776Z,14.02
2018-06-12T03:26:17.908Z,14.02
2018-06-12T03:27:28.049Z,14.06
2018-06-12T03:28:38.191Z,14
2018-06-12T03:29:48.351Z,13.91
2018-06-12T03:31:13.365Z,14.03
2018-06-12T03:32:23.720Z,14.03
2018-06-12T03:33:33.862Z,13.94
2018-06-12T03:34:43.992Z,14
2018-06-12T03:35:54.120Z,14
2018-06-12T03:37:03.912Z,14.11
2018-06-12T03:38:14.172Z,14.09
2018-06-12T03:39:24.601Z,14
2018-06-12T03:40:34.759Z,14.1
2018-06-12T03:41:44.968Z,14.14
2018-06-12T03:42:56.118Z,14.09
2018-06-12T03:44:06.309Z,14.14
2018-06-12T03:45:16.239Z,14.11
2018-06-12T03:46:26.004Z,14.1
2018-06-12T03:47:36.154Z,14.16
2018-06-12T03:48:46.358Z,14.11
2018-06-12T03:49:56.497Z,14.14
2018-06-12T03:51:06.641Z,14.18
2018-06-12T03:52:16.810Z,14.04
2018-06-12T03:53:27.239Z,14.11
2018-06-12T03:54:37.380Z,14.02
2018-06-12T03:55:47.167Z,13.95
2018-06-12T03:56:57.331Z,14.06
2018-06-12T03:58:07.199Z,14.02
2018-06-12T03:59:17.328Z,13.99
2018-06-12T04:00:27.466Z,14
2018-06-12T04:01:37.637Z,13.99
2018-06-12T04:02:47.926Z,13.89
2018-06-12T04:03:58.093Z,13.89
2018-06-12T04:05:08.310Z,13.88
2018-06-12T04:06:18.600Z,13.84
2018-06-12T04:07:28.508Z,13.81
2018-06-12T04:08:38.673Z,13.84
2018-06-12T04:09:48.813Z,13.74
2018-06-12T04:10:58.987Z,13.81
2018-06-12T04:12:09.419Z,13.76
2018-06-12T04:13:19.564Z,13.91
2018-06-12T04:14:29.722Z,13.94
2018-06-12T04:15:39.874Z,13.86
2018-06-12T04:16:50.075Z,13.89
2018-06-12T04:17:59.785Z,13.92
2018-06-12T04:19:10.025Z,14
2018-06-12T04:20:20.388Z,14.02
2018-06-12T04:21:30.553Z,13.89
2018-06-12T04:22:40.465Z,13.92
2018-06-12T04:23:50.611Z,13.91
2018-06-12T04:25:00.755Z,13.79
2018-06-12T04:26:10.900Z,13.88
2018-06-12T04:27:21.084Z,13.92
2018-06-12T04:28:31.300Z,13.89
2018-06-12T04:29:41.518Z,13.88
2018-06-12T04:30:51.711Z,13.81
2018-06-12T04:32:01.994Z,13.81
2018-06-12T04:33:12.152Z,13.81
2018-06-12T04:34:22.324Z,13.81
2018-06-12T04:35:32.772Z,13.81
2018-06-12T04:36:42.936Z,13.85
2018-06-12T04:37:52.864Z,13.84
2018-06-12T04:39:03.033Z,13.84
2018-06-12T04:40:13.170Z,13.81
2018-06-12T04:41:23.336Z,13.79
2018-06-12T04:42:33.572Z,13.82
2018-06-12T04:43:43.467Z,13.86
2018-06-12T04:44:53.604Z,13.84
2018-06-12T04:46:03.736Z,13.91
2018-06-12T04:47:14.069Z,13.89
2018-06-12T04:48:24.207Z,14
2018-06-12T04:49:34.382Z,13.99
2018-06-12T04:50:44.516Z,13.99
2018-06-12T04:51:54.663Z,14.02
2018-06-12T04:53:04.819Z,14.04
2018-06-12T04:54:15.017Z,13.96
2018-06-12T04:55:25.145Z,14
2018-06-12T04:56:35.276Z,14.07
2018-06-12T04:57:45.430Z,14.02
2018-06-12T04:58:55.319Z,13.96
2018-06-12T05:00:05.475Z,14.03
2018-06-12T05:01:15.722Z,14.04
2018-06-12T05:02:25.883Z,14
2018-06-12T05:03:36.036Z,14.06
2018-06-12T05:04:46.261Z,14
2018-06-12T05:05:56.476Z,14.04
2018-06-12T05:07:06.605Z,14.06
2018-06-12T05:08:16.757Z,13.99
2018-06-12T05:09:26.885Z,14.02
2018-06-12T05:10:37.200Z,13.95
2018-06-12T05:11:47.207Z,13.96
2018-06-12T05:12:57.393Z,14.03
2018-06-12T05:14:07.552Z,14.1
2018-06-12T05:15:17.751Z,14.13
2018-06-12T05:16:27.623Z,14.06
2018-06-12T05:17:37.753Z,14.07
2018-06-12T05:18:47.921Z,14.02
2018-06-12T05:19:58.386Z,14.16
2018-06-12T05:21:08.931Z,14.09
2018-06-12T05:22:19.096Z,14.04
2018-06-12T05:23:29.274Z,13.99
2018-06-12T05:24:39.531Z,14.02
2018-06-12T05:25:49.708Z,14.02
2018-06-12T05:26:59.805Z,14.04
2018-06-12T05:28:09.970Z,14.14
2018-06-12T05:29:20.140Z,14.11
2018-06-12T05:30:30.286Z,14.14
2018-06-12T05:31:40.643Z,14.22
2018-06-12T05:32:50.833Z,14.28
2018-06-12T05:34:01.013Z,14.24
2018-06-12T05:35:11.177Z,14.43
2018-06-12T05:36:21.328Z,14.56
2018-06-12T05:37:31.553Z,14.52
2018-06-12T05:38:41.729Z,14.48
2018-06-12T05:39:51.870Z,14.63
2018-06-12T05:41:02.020Z,14.51
2018-06-12T05:42:11.957Z,14.72
2018-06-12T05:43:22.138Z,14.6
2018-06-12T05:44:31.968Z,14.65
2018-06-12T05:45:42.119Z,14.67
2018-06-12T05:46:52.374Z,14.75
2018-06-12T05:48:02.560Z,14.77
2018-06-12T05:49:12.731Z,14.72
2018-06-12T05:50:22.937Z,14.72
2018-06-12T05:51:33.090Z,14.7
2018-06-12T05:52:43.289Z,14.8
2018-06-12T05:53:53.539Z,14.77
2018-06-12T05:55:03.743Z,14.74
2018-06-12T05:56:13.874Z,14.72
2018-06-12T05:57:24.007Z,14.74
2018-06-12T05:58:34.156Z,14.77
2018-06-12T05:59:44.599Z,14.7
2018-06-12T06:00:54.775Z,14.78
2018-06-12T06:02:04.908Z,14.88
2018-06-12T06:03:15.084Z,14.95
2018-06-12T06:04:25.214Z,15
2018-06-12T06:05:35.477Z,14.98
2018-06-12T06:06:45.613Z,14.9
2018-06-12T06:07:55.985Z,14.87
2018-06-12T06:09:06.148Z,14.87
2018-06-12T06:10:16.287Z,14.78
2018-06-12T06:11:26.567Z,14.72
2018-06-12T06:12:36.733Z,14.72
2018-06-12T06:13:46.986Z,14.78
2018-06-12T06:14:57.172Z,14.83
2018-06-12T06:16:07.356Z,14.9
2018-06-12T06:17:17.621Z,14.83
2018-06-12T06:18:27.865Z,14.84
2018-06-12T06:19:38.014Z,14.83
2018-06-12T06:20:48.283Z,14.85
2018-06-12T06:21:58.501Z,14.96
2018-06-12T06:23:08.754Z,15.06
2018-06-12T06:24:19.229Z,15.24
2018-06-12T06:25:29.572Z,15.3
2018-06-12T06:26:39.849Z,15.45
2018-06-12T06:27:50.013Z,15.63
2018-06-12T06:29:00.273Z,15.79
2018-06-12T06:30:10.458Z,15.89
2018-06-12T06:31:20.604Z,15.99
2018-06-12T06:32:30.766Z,16.13
2018-06-12T06:33:40.960Z,16.13
2018-06-12T06:34:51.112Z,16.21
2018-06-12T06:36:01.332Z,16.19
2018-06-12T06:37:11.502Z,16.21
2018-06-12T06:38:21.721Z,16.21
2018-06-12T06:39:32.123Z,16.1
2018-06-12T06:40:42.252Z,15.94
2018-06-12T06:41:52.398Z,15.8
2018-06-12T06:43:02.682Z,15.72
2018-06-12T06:44:13.033Z,15.7
2018-06-12T06:45:23.380Z,15.68
2018-06-12T06:46:33.596Z,15.64
2018-06-12T06:47:43.793Z,15.55
2018-06-12T06:48:54.031Z,15.61
2018-06-12T06:50:04.265Z,15.54
2018-06-12T06:51:14.446Z,15.53
2018-06-12T06:52:24.616Z,15.55
2018-06-12T06:53:34.815Z,15.55
2018-06-12T06:54:45.079Z,15.55
2018-06-12T06:55:54.965Z,15.45
2018-06-12T06:57:05.157Z,15.43
2018-06-12T06:58:15.482Z,15.38
2018-06-12T06:59:25.653Z,15.4
2018-06-12T07:00:35.836Z,15.43
2018-06-12T07:01:46.073Z,15.51
2018-06-12T07:02:55.963Z,15.54
2018-06-12T07:04:06.173Z,15.46
2018-06-12T07:05:16.314Z,15.43
2018-06-12T07:06:26.488Z,15.45
2018-06-12T07:07:36.638Z,15.42
2018-06-12T07:08:46.513Z,15.55
2018-06-12T07:09:56.418Z,15.68
2018-06-12T07:11:06.585Z,15.68
2018-06-12T07:12:16.734Z,15.79
2018-06-12T07:13:26.900Z,15.88
2018-06-12T07:14:37.074Z,15.94
2018-06-12T07:15:47.210Z,16.11
2018-06-12T07:16:57.473Z,16.17
2018-06-12T07:18:07.674Z,16.28
2018-06-12T07:19:17.835Z,16.38
2018-06-12T07:20:28.069Z,16.43
2018-06-12T07:21:38.283Z,16.39
2018-06-12T07:22:48.578Z,16.42
2018-06-12T07:23:58.728Z,16.43
2018-06-12T07:25:08.882Z,16.5
2018-06-12T07:26:19.030Z,16.5
2018-06-12T07:27:29.178Z,16.46
2018-06-12T07:28:39.335Z,16.39
2018-06-12T07:29:49.517Z,16.42
2018-06-12T07:30:59.692Z,16.42
2018-06-12T07:32:09.850Z,16.47
2018-06-12T07:33:20.150Z,16.24
2018-06-12T07:34:30.305Z,16.13
2018-06-12T07:35:40.531Z,15.94
2018-06-12T07:36:50.707Z,15.88
2018-06-12T07:38:00.577Z,15.91
2018-06-12T07:39:10.733Z,15.91
2018-06-12T07:40:20.865Z,15.99
2018-06-12T07:41:30.990Z,15.91
2018-06-12T07:42:41.140Z,15.95
2018-06-12T07:43:51.308Z,15.98
2018-06-12T07:45:01.451Z,16.09
2018-06-12T07:46:11.374Z,16.17
2018-06-12T07:47:21.524Z,16.29
2018-06-12T07:48:31.679Z,16.44
2018-06-12T07:49:41.876Z,16.44
2018-06-12T07:50:52.055Z,16.39
2018-06-12T07:52:02.243Z,16.47
2018-06-12T07:53:12.618Z,16.42
2018-06-12T07:54:22.778Z,16.47
2018-06-12T07:55:32.752Z,16.59
2018-06-12T07:56:42.894Z,16.53
2018-06-12T07:57:53.033Z,16.49
2018-06-12T07:59:03.201Z,16.32
2018-06-12T08:00:13.389Z,16.28
2018-06-12T08:01:23.562Z,16.21
2018-06-12T08:02:33.731Z,16.16
2018-06-12T08:03:43.911Z,16.16
2018-06-12T08:04:54.134Z,16.14
2018-06-12T08:06:03.957Z,16.1
2018-06-12T08:07:14.110Z,16.17
2018-06-12T08:08:24.329Z,16.19
2018-06-12T08:09:34.542Z,16.13
2018-06-12T08:10:44.709Z,16.11
2018-06-12T08:11:54.881Z,16.13
2018-06-12T08:13:05.189Z,16.19
2018-06-12T08:14:15.592Z,16.09
2018-06-12T08:15:25.761Z,16.07
2018-06-12T08:16:35.911Z,16.11
2018-06-12T08:17:46.124Z,16.13
2018-06-12T08:18:56.284Z,15.96
2018-06-12T08:20:06.483Z,15.98
2018-06-12T08:21:16.647Z,16.02
2018-06-12T08:22:27.773Z,16.02
2018-06-12T08:23:37.949Z,16.01
2018-06-12T08:24:48.101Z,15.96
2018-06-12T08:25:58.253Z,15.96
2018-06-12T08:27:08.450Z,16.02
2018-06-12T08:28:18.606Z,15.99
2018-06-12T08:29:28.857Z,15.98
2018-06-12T08:30:39.396Z,16.09
2018-06-12T08:31:49.881Z,16.11
2018-06-12T08:33:00.021Z,16.1
2018-06-12T08:34:10.338Z,16.13
2018-06-12T08:35:20.459Z,16.14
2018-06-12T08:36:30.616Z,16.39
2018-06-12T08:37:40.861Z,16.5
2018-06-12T08:38:51.008Z,16.62
2018-06-12T08:40:01.237Z,16.68
2018-06-12T08:41:11.596Z,16.8
2018-06-12T08:42:21.755Z,16.74
2018-06-12T08:43:31.927Z,16.74
2018-06-12T08:44:42.105Z,16.72
2018-06-12T08:45:52.005Z,16.69
2018-06-12T08:47:02.156Z,16.69
2018-06-12T08:48:12.518Z,16.65
2018-06-12T08:49:22.656Z,16.66
2018-06-12T08:50:33.139Z,16.79
2018-06-12T08:51:43.307Z,16.76
2018-06-12T08:52:53.446Z,16.79
2018-06-12T08:54:03.598Z,16.72
2018-06-12T08:55:13.785Z,16.8
2018-06-12T08:56:24.008Z,16.75
2018-06-12T08:57:34.164Z,16.74
2018-06-12T08:58:44.393Z,16.72
2018-06-12T08:59:54.684Z,16.57
2018-06-12T09:01:04.827Z,16.49
2018-06-12T09:02:15.035Z,16.5
2018-06-12T09:03:25.437Z,16.39
2018-06-12T09:04:35.806Z,16.39
2018-06-12T09:05:46.026Z,16.53
2018-06-12T09:06:56.241Z,16.56
2018-06-12T09:08:06.441Z,16.56
2018-06-12T09:09:16.559Z,16.46
2018-06-12T09:10:26.731Z,16.43
2018-06-12T09:11:37.120Z,16.42
2018-06-12T09:12:47.264Z,16.27
2018-06-12T09:13:57.403Z,16.36
2018-06-12T09:15:07.623Z,16.29
2018-06-12T09:16:17.768Z,16.42
2018-06-12T09:17:27.970Z,16.44
2018-06-12T09:18:38.178Z,16.47
2018-06-12T09:19:48.386Z,16.61
2018-06-12T09:20:58.548Z,16.57
2018-06-12T09:22:08.735Z,16.66
2018-06-12T09:23:18.983Z,16.66
2018-06-12T09:24:29.258Z,16.79
2018-06-12T09:25:39.488Z,16.79
2018-06-12T09:26:49.731Z,16.79
2018-06-12T09:27:59.947Z,16.72
2018-06-12T09:29:10.160Z,16.9
2018-06-12T09:30:20.338Z,17.04
2018-06-12T09:31:30.582Z,17.23
2018-06-12T09:32:41.357Z,17.5
2018-06-12T09:33:51.495Z,17.76
2018-06-12T09:35:01.640Z,17.94
2018-06-12T09:36:11.879Z,17.95
2018-06-12T09:37:21.790Z,18.05
2018-06-12T09:38:31.947Z,17.98
2018-06-12T09:39:42.166Z,18
2018-06-12T09:40:52.389Z,17.92
2018-06-12T09:42:02.579Z,18.01
2018-06-12T09:43:13.234Z,18.04
2018-06-12T09:44:23.366Z,18.22
2018-06-12T09:45:33.517Z,18.26
2018-06-12T09:46:43.688Z,18.35
2018-06-12T09:47:53.829Z,18.4
2018-06-12T09:49:04.078Z,18.34
2018-06-12T09:50:14.566Z,18.32
2018-06-12T09:51:24.741Z,18.3
2018-06-12T09:52:35.033Z,18.41
2018-06-12T09:53:45.233Z,18.46
2018-06-12T09:54:55.376Z,18.44
2018-06-12T09:56:05.536Z,18.38
2018-06-12T09:57:15.725Z,18.12
2018-06-12T09:58:25.960Z,18.04
2018-06-12T09:59:36.135Z,17.83
2018-06-12T10:00:46.293Z,17.62
2018-06-12T10:01:56.468Z,17.62
2018-06-12T10:03:06.665Z,17.62
2018-06-12T10:04:16.844Z,17.64
2018-06-12T10:05:27.011Z,17.57
2018-06-12T10:06:37.265Z,17.47
2018-06-12T10:07:47.164Z,17.19
2018-06-12T10:08:57.452Z,17.11
2018-06-12T10:10:07.619Z,17.05
2018-06-12T10:11:17.885Z,17.06
2018-06-12T10:12:28.334Z,17.11
2018-06-12T10:13:38.471Z,17.17
2018-06-12T10:14:48.880Z,17.11
2018-06-12T10:15:58.788Z,17.08
2018-06-12T10:17:08.940Z,17.06
2018-06-12T10:18:19.096Z,16.99
2018-06-12T10:19:29.232Z,16.93
2018-06-12T10:20:39.508Z,17.06
2018-06-12T10:21:49.647Z,17.05
2018-06-12T10:22:59.798Z,17.06
2018-06-12T10:24:10.006Z,17.11
2018-06-12T10:25:19.886Z,17.21
2018-06-12T10:26:30.072Z,17.21
2018-06-12T10:27:40.304Z,17.42
2018-06-12T10:28:51.449Z,17.61
2018-06-12T10:30:01.693Z,17.77
2018-06-12T10:31:11.899Z,17.73
2018-06-12T10:32:22.122Z,17.68
2018-06-12T10:33:32.354Z,17.8
2018-06-12T10:35:14.407Z,17.77
2018-06-12T10:36:24.613Z,17.87
2018-06-12T10:37:35.066Z,17.86
2018-06-12T10:38:45.264Z,17.86
2018-06-12T10:39:55.419Z,17.83
2018-06-12T10:41:05.610Z,17.72
2018-06-12T10:42:15.804Z,17.73
2018-06-12T10:43:25.969Z,17.86
2018-06-12T10:44:36.123Z,17.83
2018-06-12T10:45:46.369Z,17.79
2018-06-12T10:46:56.547Z,17.77
2018-06-12T10:48:06.703Z,17.77
2018-06-12T10:49:16.586Z,17.61
2018-06-12T10:50:26.751Z,17.62
2018-06-12T10:51:36.902Z,17.61
2018-06-12T10:52:47.141Z,17.64
2018-06-12T10:53:57.430Z,17.58
2018-06-12T10:55:07.612Z,17.54
2018-06-12T10:56:17.797Z,17.5
2018-06-12T10:57:28.021Z,17.54
2018-06-12T10:58:38.197Z,17.47
2018-06-12T10:59:48.489Z,17.64
2018-06-12T11:00:58.690Z,17.61
2018-06-12T11:02:08.871Z,17.62
2018-06-12T11:03:19.031Z,17.72
2018-06-12T11:04:29.202Z,17.83
2018-06-12T11:05:39.080Z,17.91
2018-06-12T11:06:49.004Z,18.01
2018-06-12T11:07:59.170Z,18.02
2018-06-12T11:09:09.336Z,18.05
2018-06-12T11:10:19.528Z,18.04
2018-06-12T11:11:29.753Z,18.07
2018-06-12T11:12:40.008Z,17.95
2018-06-12T11:13:50.239Z,18.05
2018-06-12T11:15:00.129Z,18.15
2018-06-12T11:16:10.361Z,18.09
2018-06-12T11:17:20.499Z,18.07
2018-06-12T11:18:30.655Z,18.13
2018-06-12T11:19:40.866Z,18.09
2018-06-12T11:20:51.163Z,18.23
2018-06-12T11:22:01.381Z,18.22
2018-06-12T11:23:11.538Z,18.3
2018-06-12T11:24:21.366Z,18.23
2018-06-12T11:25:31.500Z,18.37
2018-06-12T11:26:41.710Z,18.38
2018-06-12T11:27:52.069Z,18.46
2018-06-12T11:29:02.242Z,18.56
2018-06-12T11:30:12.388Z,18.73
2018-06-12T11:31:22.647Z,18.82
2018-06-12T11:32:32.784Z,18.94
2018-06-12T11:33:43.043Z,19.1
2018-06-12T11:34:53.199Z,18.97
2018-06-12T11:36:03.463Z,19.09
2018-06-12T11:37:13.719Z,19.06
2018-06-12T11:38:23.936Z,19.08
2018-06-12T11:39:34.119Z,19.15
2018-06-12T11:40:44.334Z,19.09
2018-06-12T11:41:54.894Z,19.06
2018-06-12T11:43:04.807Z,19.09
2018-06-12T11:44:14.983Z,19.09
2018-06-12T11:45:25.188Z,18.95
2018-06-12T11:46:35.102Z,18.94
2018-06-12T11:47:45.288Z,18.97
2018-06-12T11:48:55.333Z,18.98
2018-06-12T11:50:05.740Z,19.02
2018-06-12T11:51:16.252Z,19.09
2018-06-12T11:52:26.543Z,19.23
2018-06-12T11:53:36.741Z,19.31
2018-06-12T11:54:46.982Z,19.34
2018-06-12T11:55:57.146Z,19.42
2018-06-12T11:57:07.320Z,19.52
2018-06-12T11:58:17.250Z,19.71
2018-06-12T11:59:27.404Z,19.78
2018-06-12T12:00:37.815Z,19.76
2018-06-12T12:01:48.137Z,19.73
2018-06-12T12:02:58.592Z,19.61
2018-06-12T12:04:08.493Z,19.7
2018-06-12T12:05:18.642Z,19.73
2018-06-12T12:06:28.809Z,19.61
2018-06-12T12:07:39.007Z,19.53
2018-06-12T12:08:49.174Z,19.34
2018-06-12T12:09:59.373Z,19.19
2018-06-12T12:11:09.567Z,19.1
2018-06-12T12:12:19.737Z,19
2018-06-12T12:13:30.009Z,18.93
2018-06-12T12:14:39.901Z,18.93
2018-06-12T12:15:50.073Z,18.97
2018-06-12T12:17:00.558Z,18.95
2018-06-12T12:18:10.827Z,18.97
2018-06-12T12:19:20.760Z,19.05
2018-06-12T12:20:30.983Z,19.13
2018-06-12T12:21:41.139Z,19.27
2018-06-12T12:22:51.314Z,19.25
2018-06-12T12:24:01.486Z,19.16
2018-06-12T12:25:11.674Z,19.16
2018-06-12T12:26:21.949Z,19.25
2018-06-12T12:27:31.978Z,19.27
2018-06-12T12:28:42.234Z,19.52
2018-06-12T12:29:52.576Z,19.63
2018-06-12T12:31:02.501Z,19.85
2018-06-12T12:32:12.685Z,20.04
2018-06-12T12:33:22.981Z,20.27
2018-06-12T12:34:33.136Z,20.34
2018-06-12T12:35:43.331Z,20.46
2018-06-12T12:36:53.479Z,20.75
2018-06-12T12:38:03.389Z,20.73
2018-06-12T12:39:13.580Z,20.64
2018-06-12T12:40:25.198Z,20.49
2018-06-12T12:41:35.326Z,20.39
2018-06-12T12:42:45.707Z,20.34
2018-06-12T12:43:55.900Z,20.39
2018-06-12T12:45:06.061Z,20.34
2018-06-12T12:46:16.045Z,20.46
2018-06-12T12:47:26.215Z,20.39
2018-06-12T12:48:36.584Z,20.43
2018-06-12T12:49:46.875Z,20.31
2018-06-12T12:50:57.103Z,20.19
2018-06-12T12:52:07.290Z,20.05
2018-06-12T12:53:17.468Z,20.11
2018-06-12T12:54:27.710Z,19.92
2018-06-12T12:55:37.913Z,19.83
2018-06-12T12:56:48.069Z,19.8
2018-06-12T12:57:59.209Z,19.73
2018-06-12T12:59:09.688Z,19.64
2018-06-12T13:00:19.852Z,19.7
2018-06-12T13:01:30.052Z,19.83
2018-06-12T13:02:40.229Z,19.8
2018-06-12T13:03:50.445Z,19.83
2018-06-12T13:05:00.697Z,19.85
2018-06-12T13:06:10.942Z,19.95
2018-06-12T13:07:21.355Z,19.89
2018-06-12T13:08:31.585Z,19.92
2018-06-12T13:09:41.752Z,19.98
2018-06-12T13:10:52.975Z,19.9
2018-06-12T13:12:03.236Z,19.95
2018-06-12T13:13:13.415Z,19.86
2018-06-12T13:14:23.629Z,19.79
2018-06-12T13:15:33.837Z,19.7
2018-06-12T13:16:44.026Z,19.67
2018-06-12T13:17:54.249Z,19.48
2018-06-12T13:19:04.410Z,19.49
2018-06-12T13:20:14.647Z,19.55
2018-06-12T13:21:24.654Z,19.63
2018-06-12T13:22:34.835Z,19.61
2018-06-12T13:23:45.013Z,19.76
2018-06-12T13:24:55.416Z,19.65
2018-06-12T13:26:05.606Z,19.58
2018-06-12T13:27:16.046Z,19.64
2018-06-12T13:28:26.256Z,19.67
2018-06-12T13:29:36.437Z,19.65
2018-06-12T13:30:46.668Z,19.64
2018-06-12T13:31:56.882Z,19.55
2018-06-12T13:33:07.091Z,19.6
2018-06-12T13:34:17.290Z,19.52
2018-06-12T13:35:27.490Z,19.46
2018-06-12T13:36:37.753Z,19.42
2018-06-12T13:37:47.952Z,19.27
2018-06-12T13:38:58.182Z,19.27
2018-06-12T13:40:08.452Z,19.34
2018-06-12T13:41:18.371Z,19.21
2018-06-12T13:42:28.563Z,19.09
2018-06-12T13:43:38.812Z,19.21
2018-06-12T13:44:49.067Z,19.23
2018-06-12T13:45:59.236Z,19.1
2018-06-12T13:47:08.983Z,19.12
2018-06-12T13:48:19.028Z,19.13
2018-06-12T13:49:29.222Z,19.1
2018-06-12T13:50:39.639Z,19.19
2018-06-12T13:51:49.847Z,19.31
2018-06-12T13:53:00.036Z,19.4
2018-06-12T13:54:10.255Z,19.67
2018-06-12T13:55:20.458Z,19.61
2018-06-12T13:56:30.634Z,19.71
2018-06-12T13:57:40.817Z,19.76
2018-06-12T13:58:50.762Z,19.7
2018-06-12T14:00:01.138Z,19.61
2018-06-12T14:01:11.396Z,19.46
2018-06-12T14:02:21.624Z,19.31
2018-06-12T14:03:31.843Z,19.27
2018-06-12T14:04:42.036Z,19.27
2018-06-12T14:05:52.310Z,19.27
2018-06-12T14:07:02.623Z,19.34
2018-06-12T14:08:13.020Z,19.28
2018-06-12T14:09:23.223Z,19.27
2018-06-12T14:10:33.416Z,19.25
2018-06-12T14:11:43.577Z,19.28
2018-06-12T14:12:53.798Z,19.25
2018-06-12T14:14:04.157Z,19.27
2018-06-12T14:15:14.337Z,19.3
2018-06-12T14:16:24.517Z,19.31
2018-06-12T14:17:34.704Z,19.19
2018-06-12T14:18:44.974Z,19.35
2018-06-12T14:19:55.194Z,19.28
2018-06-12T14:21:05.412Z,19.39
2018-06-12T14:22:15.562Z,19.35
2018-06-12T14:23:25.809Z,19.33
2018-06-12T14:24:36.018Z,19.35
2018-06-12T14:25:46.199Z,19.42
2018-06-12T14:26:56.384Z,19.42
2018-06-12T14:28:06.882Z,19.49
2018-06-12T14:29:17.305Z,19.53
2018-06-12T14:30:27.504Z,19.61
2018-06-12T14:31:37.746Z,19.42
2018-06-12T14:32:47.961Z,19.42
2018-06-12T14:33:58.375Z,19.46
2018-06-12T14:35:08.393Z,19.34
2018-06-12T14:36:18.594Z,19.27
2018-06-12T14:37:28.534Z,19.31
2018-06-12T14:38:38.729Z,19.19
2018-06-12T14:39:48.948Z,19.15
2018-06-12T14:40:59.481Z,19.24
2018-06-12T14:42:09.717Z,19.13
2018-06-12T14:43:19.909Z,19.15
2018-06-12T14:44:30.121Z,19.18
2018-06-12T14:45:40.356Z,19.13
2018-06-12T14:46:50.680Z,19.19
2018-06-12T14:48:00.871Z,19.15
2018-06-12T14:49:11.103Z,19.25
2018-06-12T14:50:21.321Z,19.3
2018-06-12T14:51:31.510Z,19.35
2018-06-12T14:52:41.714Z,19.46
2018-06-12T14:53:51.900Z,19.45
2018-06-12T14:55:02.162Z,19.63
2018-06-12T14:56:12.507Z,19.5
2018-06-12T14:57:22.744Z,19.45
2018-06-12T14:58:32.938Z,19.45
2018-06-12T14:59:43.110Z,19.39
2018-06-12T15:00:53.316Z,19.46
2018-06-12T15:02:04.566Z,19.5
2018-06-12T15:03:14.853Z,19.42
2018-06-12T15:04:25.036Z,19.39
2018-06-12T15:05:35.222Z,19.34
2018-06-12T15:06:45.425Z,19.31
2018-06-12T15:07:55.275Z,19.35
2018-06-12T15:09:05.487Z,19.21
2018-06-12T15:10:16.709Z,19.18
2018-06-12T15:11:27.389Z,19.18
2018-06-12T15:12:37.605Z,19.25